Manitou Springs, CO

11:48 PM MDT on October 21, 2014 (GMT -0600)
Mesa over Pleasant Valley | Change Station
CLOSE
Current Station
Personal Weather Station
Location: Colorado Springs, CO
Elevation: 6289 ft
Nearby Weather Stations

Elev 6289 ft 38.85 °N, 104.86 °W | Updated 3 minutes ago

Overcast
Overcast
54.4 °F
Feels Like 54.4 °F
N
1.0
Wind Variable Wind from West
Gusts 3.0 mph

Today
High -- | Low -- °F
--% Chance of Precip.
Yesterday
High -- | Low -- °F
Precip. -- in
7:15 AM 6:12 PM
Waning Crescent, 3% visible
Pressure 29.82 in
Visibility 10.0 miles
Clouds Scattered Clouds 15000 ft
Dew Point 38 °F
Humidity 54%
Rainfall 0.00 in
Snow Depth 1 in
UV 0 out of 12
Pollen 2.80 out of 12
PM2.5 Good
Flu Activity Sporadic
METAR KAFF 220458Z AUTO VRB04KT 10SM SCT150 11/03 A3002 RMK AO2 SLP098 T01120026

More Conditions Fewer Conditions

Pressure 29.82 in
Visibility 10.0 miles
Clouds Scattered Clouds 15000 ft
Dew Point 38 °F
Humidity 54%
Rainfall 0.00 in
Snow Depth 1 in
UV 0 out of 12
Pollen 2.80 out of 12
PM2.5 Good
Flu Activity Sporadic
METAR KAFF 220458Z AUTO VRB04KT 10SM SCT150 11/03 A3002 RMK AO2 SLP098 T01120026

More Conditions Fewer Conditions

10-Day Weather Forecast

Almanac

Astronomy

Oct. 21, 2014 Rise Set
Actual Time 7:15 AM MDT 6:12 PM MDT
Civil Twilight 6:48 AM MDT 6:39 PM MDT
Nautical Twilight 6:17 AM MDT 7:10 PM MDT
Astronomical Twilight 5:46 AM MDT 7:41 PM MDT
Moon 5:03 AM MDT (10/21) 5:07 PM MDT (10/21)
Length of Visible Light 11h 51m
Length of Day
10h 57m
Tomorrow will be 2m 22s shorter.
Waning Crescent, 3% of the Moon is Illuminated
Oct 22
Waning Crescent
Oct 23
New
Oct 30
First Quarter
Nov 6
Full
Nov 14
Last Quarter

Yesterday's Extremes

State Highs State Lows

Community

WunderPhotos

Upload Photos

1,763,886 photos uploaded!

Nearby

Air Quality

  Air Quality AQ Index Pollutant
Yesterday Good
OZONE
Yesterday Good
PM2.5
Current Good
PM2.5
Tuesday Good
PM2.5
Tuesday Good
OZONE
Wednesday Good
PM2.5
Wednesday Good
OZONE

Snow Depth

Station Depth Elevation
Glen Cove 1 in 11460 ft
Rough And Tumble 0 in 10360 ft
Echo Lake 0 in 10600 ft
Michigan Creek 0 in 10600 ft
Jackwhacker Gulch 0 in 10960 ft

Earthquake Activity

City Distance Mag. Time & Date
Trinidad, Colorado 122 miles 2.7 10:33 PM MDT
2014-10-20
Trinidad, Colorado 114 miles 2.5 10:01 PM MDT
2014-10-19
Minimum magnitude displayed is 2.5.

Coastal Water Temperatures

Place Temperature
No Stations Reporting

Nearby Weather Stations